Aérodrome :
LOGIN :

S'inscrire | Disclaimer

   EN    FR    IT 

 










Légende :    VFR   VFR Marginal   IFR   IFR Intensif   IFR Très Intensif
Visi : 
Plafond : 
>= 8 km
>= 3000ft
5 à 8 km
1000 à 3000 ft
1500m à 5 km
500 à 1000 ft
800 à 1500m
200 à 500 ft
< 800m
< 200 ft
Symboles :   Orages  Brouillard  Fortes neiges  Fortes précipitations  Vent > 20 kt
SIGMETs :   Divers  Orages  Givrage  Turbulence  Onde Orograph.  Cendres Volcan.







- Altitude de l'aérodrome : 141 ft
- Code IATA : SKS


EKSP - Srydstrup Vojens

DERNIER METAR :
  • 201433Z 14002KT 5000 -DZRA BR SCT005 BKN016 15/14 Q1011

METARs EXPIRÉS :
  • 201420Z 00000KT 7000 SCT006 BKN012 15/14 Q1011 TEMPO BKN008
  • 201350Z 16002KT 9999 SCT005 BKN012 14/14 Q1011 TEMPO BKN008
  • 201328Z 23001KT 4000 -DZRA BR BKN005 BKN015 14/14 Q1012 TEMPO BKN008
  • 201320Z 24002KT 9999 SCT005 BKN015 14/14 Q1012 TEMPO BKN008
  • 201311Z 23003KT 9000 SCT005 BKN015 14/14 Q1012 TEMPO BKN008
  • 201250Z 21004KT 190V250 4000 -DZRA BR SCT007 BKN020 14/14 Q1012 TEMPO BKN008
  • 201234Z 23005KT 200V260 4000 -DZRA BR SCT003 BKN014 14/14 Q1012 TEMPO BKN008
  • 201220Z 25006KT 2500 -DZRA BR SCT004 BKN016 14/14 Q1012 TEMPO BKN008
  • 201209Z 25005KT 210V280 2500 -DZRA BR SCT005 BKN016 14/14 Q1012 TEMPO BKN008
  • 201200Z 22004KT 200V260 4000 BR SCT005 BKN016 14/14 Q1012 TEMPO BKN008
  • 201130Z 25006KT 4000 -DZRA BR SCT004 BKN013 14/13 Q1012 TEMPO BKN008

TAF TAF EKSP
Valide du 20 à 12h jusqu'au 21 à 12h UTC


201106Z 2012/2112 24012KT 9999 BKN028
TEMPO 2012/2018 1800 RADZ BR BKN008
TEMPO 2018/2106 7000 BKN012
BECMG 2109/2112 20028G50KT 6000 -RA BKN012
Pas de NOTAMs connus pour ce terrain.



MET'MAP, la Météo Aéronautique d'un coup d'oeil ! - Copyright ORBIFLY Décembre 2007 - Disclaimer

ORBIFLY MET'MAP TEAM :

Programmation & Développement : Alexandra Zaïnal
Conception & Développement : Baudouin d'Aumeries
Co-Programmation & Développement : Marc-Olivier Méhu
Soutien technique & logistique : Manuel Goepfert

Contact : metmap@orbifly.com




SOURCES & CREDITS :

   NOAA